createdAt,value
2022-12-15T00:01:59.058Z,17.08
2022-12-15T00:04:44.241Z,16.63
2022-12-15T00:07:29.090Z,18.55
2022-12-15T00:10:14.222Z,17.52
2022-12-15T00:12:59.367Z,20.42
2022-12-15T00:15:44.176Z,18.58
2022-12-15T00:18:29.289Z,17.60
2022-12-15T00:21:18.291Z,17.98
2022-12-15T00:24:03.428Z,17.15
2022-12-15T00:26:48.188Z,15.77
2022-12-15T00:29:32.957Z,17.80
2022-12-15T00:32:18.037Z,19.33
2022-12-15T00:35:02.972Z,17.05
2022-12-15T00:37:47.957Z,19.95
2022-12-15T00:40:14.455Z,17.23
2022-12-15T00:42:40.852Z,18.15
2022-12-15T00:45:07.706Z,15.20
2022-12-15T00:47:34.211Z,15.63
2022-12-15T00:50:19.274Z,18.70
2022-12-15T00:53:04.389Z,16.73
2022-12-15T00:55:49.125Z,14.80
2022-12-15T00:58:34.327Z,15.85
2022-12-15T01:01:25.373Z,16.88
2022-12-15T01:04:10.626Z,16.30
2022-12-15T01:06:55.483Z,16.10
2022-12-15T01:09:40.632Z,16.42
2022-12-15T01:12:25.366Z,17.63
2022-12-15T01:15:10.214Z,16.30
2022-12-15T01:17:55.140Z,15.18
2022-12-15T01:20:21.563Z,14.80
2022-12-15T01:22:55.681Z,18.35
2022-12-15T01:25:24.381Z,16.98
2022-12-15T01:27:51.127Z,16.95
2022-12-15T01:30:24.120Z,17.83
2022-12-15T01:32:50.948Z,18.52
2022-12-15T01:35:20.989Z,13.85
2022-12-15T01:37:50.157Z,18.42
2022-12-15T01:40:36.950Z,16.45
2022-12-15T01:43:03.548Z,17.80
2022-12-15T01:45:31.532Z,15.40
2022-12-15T01:48:07.734Z,15.68
2022-12-15T01:50:41.251Z,16.60
2022-12-15T01:53:10.620Z,17.42
2022-12-15T01:55:38.128Z,14.25
2022-12-15T01:58:12.722Z,15.25
2022-12-15T02:00:42.469Z,16.52
2022-12-15T02:03:09.590Z,17.80
2022-12-15T02:05:36.859Z,16.17
2022-12-15T02:08:03.784Z,15.43
2022-12-15T02:10:50.623Z,14.68
2022-12-15T02:13:28.716Z,15.00
2022-12-15T02:16:02.366Z,14.32
2022-12-15T02:18:31.464Z,16.77
2022-12-15T02:21:12.538Z,16.95
2022-12-15T02:23:57.579Z,16.83
2022-12-15T02:26:52.086Z,17.08
2022-12-15T02:29:30.083Z,16.38
2022-12-15T02:32:01.019Z,14.88
2022-12-15T02:34:42.892Z,14.30
2022-12-15T02:37:22.458Z,14.70
2022-12-15T02:39:48.908Z,13.23
2022-12-15T02:42:16.152Z,14.77
2022-12-15T02:44:47.765Z,19.20
2022-12-15T02:47:18.947Z,16.85
2022-12-15T02:50:07.083Z,15.57
2022-12-15T02:53:00.689Z,18.63
2022-12-15T02:56:06.477Z,16.50
2022-12-15T02:58:49.021Z,15.50
2022-12-15T03:01:22.379Z,19.73
2022-12-15T03:03:49.957Z,17.73
2022-12-15T03:06:16.745Z,16.23
2022-12-15T03:08:43.131Z,21.48
2022-12-15T03:11:09.589Z,16.13
2022-12-15T03:13:35.974Z,17.08
2022-12-15T03:16:02.429Z,18.05
2022-12-15T03:18:28.939Z,16.83
2022-12-15T03:20:55.278Z,15.93
2022-12-15T03:23:23.022Z,17.15
2022-12-15T03:25:50.279Z,17.63
2022-12-15T03:28:17.070Z,14.20
2022-12-15T03:30:43.627Z,14.02
2022-12-15T03:33:11.222Z,13.45
2022-12-15T03:35:37.554Z,17.38
2022-12-15T03:38:04.074Z,15.48
2022-12-15T03:40:30.492Z,15.65
2022-12-15T03:42:57.970Z,15.95
2022-12-15T03:45:26.642Z,14.85
2022-12-15T03:47:53.994Z,14.18
2022-12-15T03:50:22.555Z,13.50
2022-12-15T03:52:53.199Z,15.80
2022-12-15T03:55:20.526Z,15.90
2022-12-15T03:57:47.213Z,13.57
2022-12-15T04:00:18.422Z,15.38
2022-12-15T04:02:45.819Z,15.30
2022-12-15T04:05:15.949Z,14.68
2022-12-15T04:07:42.330Z,15.13
2022-12-15T04:10:09.124Z,14.52
2022-12-15T04:12:35.454Z,15.00
2022-12-15T04:15:01.773Z,13.93
2022-12-15T04:17:28.145Z,12.82
2022-12-15T04:20:09.321Z,14.13
2022-12-15T04:22:46.823Z,14.77
2022-12-15T04:25:37.136Z,16.38
2022-12-15T04:28:23.002Z,16.58
2022-12-15T04:31:11.125Z,16.42
2022-12-15T04:33:58.309Z,13.38
2022-12-15T04:36:43.346Z,16.25
2022-12-15T04:39:28.016Z,15.07
2022-12-15T04:42:13.493Z,15.63
2022-12-15T04:44:58.544Z,14.05
2022-12-15T04:47:43.921Z,16.50
2022-12-15T04:50:28.856Z,19.35
2022-12-15T04:53:13.727Z,14.02
2022-12-15T04:55:58.667Z,15.85
2022-12-15T04:58:43.610Z,15.82
2022-12-15T05:01:28.434Z,19.33
2022-12-15T05:04:13.570Z,18.35
2022-12-15T05:06:59.840Z,18.73
2022-12-15T05:09:44.649Z,17.50
2022-12-15T05:12:29.731Z,16.35
2022-12-15T05:15:15.163Z,15.82
2022-12-15T05:17:59.980Z,15.90
2022-12-15T05:20:44.833Z,15.55
2022-12-15T05:23:30.366Z,15.40
2022-12-15T05:26:17.410Z,17.45
2022-12-15T05:29:02.635Z,16.08
2022-12-15T05:31:47.537Z,19.80
2022-12-15T05:34:13.973Z,20.98
2022-12-15T05:36:40.450Z,33.95
2022-12-15T05:39:06.788Z,40.70
2022-12-15T05:41:33.150Z,51.47
2022-12-15T05:43:59.551Z,39.58
2022-12-15T05:46:25.949Z,31.83
2022-12-15T05:48:52.359Z,30.90
2022-12-15T05:51:18.737Z,31.45
2022-12-15T05:53:45.113Z,28.85
2022-12-15T05:56:13.182Z,31.98
2022-12-15T05:58:45.089Z,33.25
2022-12-15T06:01:14.505Z,35.08
2022-12-15T06:03:41.404Z,34.17
2022-12-15T06:06:08.551Z,31.23
2022-12-15T06:08:36.418Z,36.45
2022-12-15T06:11:03.176Z,36.00
2022-12-15T06:13:31.871Z,40.33
2022-12-15T06:16:03.686Z,42.72
2022-12-15T06:18:33.123Z,41.15
2022-12-15T06:21:08.985Z,40.35
2022-12-15T06:23:35.864Z,36.38
2022-12-15T06:26:14.250Z,34.30
2022-12-15T06:28:40.651Z,38.88
2022-12-15T06:31:08.776Z,40.95
2022-12-15T06:33:35.733Z,38.72
2022-12-15T06:36:07.384Z,39.20
2022-12-15T06:38:34.473Z,38.88
2022-12-15T06:41:02.820Z,41.50
2022-12-15T06:43:30.378Z,42.92
2022-12-15T06:45:57.375Z,41.78
2022-12-15T06:48:24.531Z,43.95
2022-12-15T06:50:51.271Z,44.80
2022-12-15T06:53:19.214Z,45.83
2022-12-15T06:55:46.206Z,40.40
2022-12-15T06:58:13.690Z,50.53
2022-12-15T07:00:42.054Z,47.30
2022-12-15T07:03:13.291Z,46.53
2022-12-15T07:05:40.291Z,44.80
2022-12-15T07:08:06.637Z,42.58
2022-12-15T07:10:33.325Z,41.03
2022-12-15T07:12:59.662Z,46.42
2022-12-15T07:15:26.025Z,45.70
2022-12-15T07:17:55.276Z,41.40
2022-12-15T07:20:27.004Z,50.72
2022-12-15T07:22:55.403Z,46.67
2022-12-15T07:25:22.244Z,71.53
2022-12-15T07:27:48.783Z,80.85
2022-12-15T07:30:16.236Z,95.88
2022-12-15T07:32:44.102Z,106.63
2022-12-15T07:35:16.827Z,112.38
2022-12-15T07:37:43.264Z,110.22
2022-12-15T07:40:09.756Z,92.18
2022-12-15T07:42:36.289Z,106.97
2022-12-15T07:45:04.198Z,90.82
2022-12-15T07:47:31.073Z,75.03
2022-12-15T07:49:57.822Z,64.70
2022-12-15T07:52:24.541Z,48.92
2022-12-15T07:54:51.069Z,35.60
2022-12-15T07:57:20.351Z,39.78
2022-12-15T07:59:54.033Z,33.05
2022-12-15T08:02:20.529Z,32.30
2022-12-15T08:04:49.072Z,28.73
2022-12-15T08:07:15.403Z,27.15
2022-12-15T08:09:42.098Z,29.55
2022-12-15T08:12:08.435Z,31.80
2022-12-15T08:14:34.863Z,28.65
2022-12-15T08:17:01.498Z,32.47
2022-12-15T08:19:27.938Z,34.70
2022-12-15T08:21:54.293Z,30.42
2022-12-15T08:24:22.577Z,32.78
2022-12-15T08:26:50.631Z,30.67
2022-12-15T08:29:49.491Z,33.33
2022-12-15T08:32:03.857Z,35.20
2022-12-15T08:34:30.450Z,34.90
2022-12-15T08:36:56.819Z,34.58
2022-12-15T08:39:23.256Z,38.72
2022-12-15T08:41:49.835Z,38.80
2022-12-15T08:44:16.933Z,37.65
2022-12-15T08:46:44.561Z,38.75
2022-12-15T08:49:11.869Z,38.05
2022-12-15T08:51:40.630Z,38.75
2022-12-15T08:54:06.999Z,37.50
2022-12-15T08:56:33.400Z,33.88
2022-12-15T08:59:01.207Z,33.33
2022-12-15T09:01:29.139Z,39.05
2022-12-15T09:03:56.228Z,46.00
2022-12-15T09:06:25.708Z,56.03
2022-12-15T09:09:01.201Z,64.93
2022-12-15T09:11:28.791Z,64.03
2022-12-15T09:13:55.213Z,51.88
2022-12-15T09:16:22.462Z,48.17
2022-12-15T09:18:51.415Z,48.33
2022-12-15T09:21:18.850Z,36.67
2022-12-15T09:23:51.568Z,46.95
2022-12-15T09:26:19.009Z,48.42
2022-12-15T09:28:45.464Z,38.85
2022-12-15T09:31:22.912Z,36.63
2022-12-15T09:33:51.199Z,37.45
2022-12-15T09:36:17.586Z,34.50
2022-12-15T09:38:44.619Z,33.13
2022-12-15T09:41:13.893Z,34.92
2022-12-15T09:44:13.482Z,32.92
2022-12-15T09:46:54.880Z,35.90
2022-12-15T09:49:44.079Z,31.20
2022-12-15T09:52:13.636Z,41.00
2022-12-15T09:54:43.774Z,72.47
2022-12-15T09:57:40.785Z,43.33
2022-12-15T10:00:22.028Z,37.88
2022-12-15T10:03:02.105Z,33.63
2022-12-15T10:08:50.544Z,30.42
2022-12-15T10:11:30.102Z,28.70
2022-12-15T10:14:27.284Z,28.67
2022-12-15T10:17:25.527Z,27.60
2022-12-15T10:20:19.885Z,27.50
2022-12-15T10:22:50.338Z,25.73
2022-12-15T10:25:29.446Z,29.80
2022-12-15T10:28:38.156Z,29.42
2022-12-15T10:31:19.315Z,33.92
2022-12-15T10:33:50.342Z,32.38
2022-12-15T10:36:16.938Z,33.85
2022-12-15T10:38:47.337Z,34.28
2022-12-15T10:43:51.884Z,36.08
2022-12-15T10:46:25.767Z,37.33
2022-12-15T10:48:57.585Z,39.55
2022-12-15T10:51:30.840Z,41.03
2022-12-15T10:54:15.186Z,39.78
2022-12-15T10:57:04.941Z,38.05
2022-12-15T10:59:36.772Z,43.63
2022-12-15T11:02:24.488Z,38.42
2022-12-15T11:04:55.933Z,42.58
2022-12-15T11:07:23.565Z,47.30
2022-12-15T11:09:51.036Z,39.63
2022-12-15T11:12:41.819Z,40.63
2022-12-15T11:15:23.057Z,41.47
2022-12-15T11:18:02.645Z,42.92
2022-12-15T11:20:38.006Z,39.65
2022-12-15T11:23:22.275Z,41.60
2022-12-15T11:25:59.198Z,40.20
2022-12-15T11:28:36.542Z,45.05
2022-12-15T11:31:11.012Z,43.08
2022-12-15T11:33:37.359Z,40.45
2022-12-15T11:36:20.977Z,40.63
2022-12-15T11:38:47.273Z,40.90
2022-12-15T11:41:30.554Z,40.22
2022-12-15T11:44:06.661Z,41.60
2022-12-15T11:47:08.340Z,40.67
2022-12-15T11:49:44.883Z,42.78
2022-12-15T11:52:23.423Z,43.42
2022-12-15T11:54:55.329Z,43.65
2022-12-15T11:57:55.806Z,42.17
2022-12-15T12:00:23.154Z,42.35
2022-12-15T12:02:51.456Z,51.53
2022-12-15T12:05:48.950Z,44.22
2022-12-15T12:08:15.289Z,48.10
2022-12-15T12:11:07.326Z,46.95
2022-12-15T12:13:50.783Z,47.90
2022-12-15T12:16:41.780Z,48.42
2022-12-15T12:19:27.556Z,53.03
2022-12-15T12:21:59.454Z,51.85
2022-12-15T12:24:41.323Z,47.80
2022-12-15T12:27:24.158Z,48.28
2022-12-15T12:30:00.772Z,47.63
2022-12-15T12:32:51.590Z,50.20
2022-12-15T12:35:51.185Z,48.65
2022-12-15T12:38:24.313Z,46.25
2022-12-15T12:41:02.831Z,53.17
2022-12-15T12:43:50.231Z,49.88
2022-12-15T12:46:44.123Z,48.28
2022-12-15T12:49:27.149Z,44.88
2022-12-15T12:51:55.567Z,46.03
2022-12-15T12:54:36.987Z,44.95
2022-12-15T12:57:29.586Z,47.03
2022-12-15T13:00:02.084Z,45.63
2022-12-15T13:02:29.392Z,46.70
2022-12-15T13:05:00.050Z,47.95
2022-12-15T13:07:35.648Z,47.22
2022-12-15T13:10:16.372Z,46.75
2022-12-15T13:12:52.574Z,44.35
2022-12-15T13:15:37.835Z,44.25
2022-12-15T13:18:13.047Z,48.15
2022-12-15T13:20:40.292Z,47.20
2022-12-15T13:23:21.769Z,59.17
2022-12-15T13:26:02.019Z,78.80
2022-12-15T13:28:40.192Z,57.70
2022-12-15T13:31:19.083Z,45.72
2022-12-15T13:33:54.841Z,36.75
2022-12-15T13:36:36.603Z,39.85
2022-12-15T13:39:28.358Z,38.33
2022-12-15T13:44:45.428Z,38.80
2022-12-15T13:47:26.531Z,37.63
2022-12-15T13:50:02.269Z,37.25
2022-12-15T13:53:08.723Z,36.25
2022-12-15T13:55:28.313Z,35.53
2022-12-15T13:57:58.342Z,33.80
2022-12-15T14:00:24.853Z,35.08
2022-12-15T14:02:51.469Z,32.97
2022-12-15T14:05:24.159Z,33.05
2022-12-15T14:07:57.960Z,34.88
2022-12-15T14:10:36.735Z,34.78
2022-12-15T14:13:15.797Z,32.20
2022-12-15T14:15:46.046Z,37.28
2022-12-15T14:18:31.987Z,30.92
2022-12-15T14:20:59.678Z,32.95
2022-12-15T14:23:29.075Z,36.47
2022-12-15T14:26:07.812Z,39.65
2022-12-15T14:28:36.376Z,34.33
2022-12-15T14:31:05.922Z,38.63
2022-12-15T14:33:37.739Z,39.97
2022-12-15T14:38:45.821Z,37.70
2022-12-15T14:41:24.643Z,37.83
2022-12-15T14:44:37.422Z,39.38
2022-12-15T14:46:38.894Z,37.72
2022-12-15T14:49:07.595Z,37.40
2022-12-15T14:51:43.177Z,36.30
2022-12-15T14:54:27.939Z,38.08
2022-12-15T14:57:15.634Z,37.65
2022-12-15T14:59:44.784Z,39.15
2022-12-15T15:02:22.639Z,38.90
2022-12-15T15:05:05.177Z,37.08
2022-12-15T15:07:32.653Z,38.70
2022-12-15T15:10:00.023Z,37.25
2022-12-15T15:12:44.921Z,39.50
2022-12-15T15:15:16.545Z,36.50
2022-12-15T15:17:45.612Z,42.67
2022-12-15T15:20:19.775Z,35.75
2022-12-15T15:22:47.168Z,38.03
2022-12-15T15:26:09.121Z,37.42
2022-12-15T15:28:37.846Z,37.90
2022-12-15T15:31:24.135Z,39.22
2022-12-15T15:33:51.535Z,35.97
2022-12-15T15:36:17.934Z,34.35
2022-12-15T15:38:47.886Z,35.83
2022-12-15T15:41:14.115Z,35.67
2022-12-15T15:43:41.149Z,37.42
2022-12-15T15:46:11.932Z,36.92
2022-12-15T15:48:59.529Z,34.75
2022-12-15T15:51:27.269Z,33.20
2022-12-15T15:53:56.620Z,35.13
2022-12-15T15:56:23.048Z,33.70
2022-12-15T15:58:49.508Z,31.58
2022-12-15T16:01:16.064Z,34.90
2022-12-15T16:03:42.590Z,33.58
2022-12-15T16:06:16.361Z,34.08
2022-12-15T16:11:12.070Z,32.55
2022-12-15T16:13:38.611Z,35.08
2022-12-15T16:16:06.092Z,34.38
2022-12-15T16:18:32.892Z,33.05
2022-12-15T16:20:59.472Z,34.85
2022-12-15T16:23:29.666Z,34.65
2022-12-15T16:25:59.436Z,35.17
2022-12-15T16:28:28.220Z,33.72
2022-12-15T16:30:55.035Z,36.38
2022-12-15T16:33:22.013Z,33.30
2022-12-15T16:35:49.605Z,32.95
2022-12-15T16:38:26.016Z,29.25
2022-12-15T16:40:53.171Z,32.65
2022-12-15T16:43:23.906Z,30.67
2022-12-15T16:45:52.752Z,32.60
2022-12-15T16:48:19.505Z,35.38
2022-12-15T16:50:53.951Z,32.60
2022-12-15T16:53:29.557Z,30.85
2022-12-15T16:55:58.341Z,33.80
2022-12-15T16:58:25.876Z,33.72
2022-12-15T17:00:53.807Z,32.78
2022-12-15T17:03:26.685Z,33.80
2022-12-15T17:05:55.487Z,35.22
2022-12-15T17:08:27.857Z,32.17
2022-12-15T17:10:54.644Z,33.10
2022-12-15T17:13:36.545Z,33.50
2022-12-15T17:16:06.455Z,37.95
2022-12-15T17:18:33.968Z,36.38
2022-12-15T17:21:06.902Z,37.92
2022-12-15T17:23:35.253Z,34.47
2022-12-15T17:26:22.709Z,35.20
2022-12-15T17:28:48.615Z,35.70
2022-12-15T17:31:19.749Z,38.25
2022-12-15T17:33:46.167Z,39.15
2022-12-15T17:36:16.976Z,35.03
2022-12-15T17:38:43.501Z,36.35
2022-12-15T17:41:35.138Z,32.00
2022-12-15T17:44:31.160Z,34.40
2022-12-15T17:46:45.610Z,36.03
2022-12-15T17:49:12.234Z,32.45
2022-12-15T17:51:38.666Z,31.13
2022-12-15T17:54:05.016Z,35.30
2022-12-15T17:56:31.469Z,32.60
2022-12-15T17:58:57.835Z,35.72
2022-12-15T18:01:24.385Z,34.78
2022-12-15T18:03:51.123Z,36.03
2022-12-15T18:06:17.713Z,32.90
2022-12-15T18:08:44.451Z,34.90
2022-12-15T18:11:15.728Z,32.97
2022-12-15T18:13:42.728Z,32.25
2022-12-15T18:16:09.261Z,35.33
2022-12-15T18:18:35.658Z,43.40
2022-12-15T18:21:11.226Z,34.97
2022-12-15T18:23:37.601Z,38.83
2022-12-15T18:26:03.996Z,37.85
2022-12-15T18:28:32.333Z,35.38
2022-12-15T18:31:15.626Z,35.90
2022-12-15T18:33:44.301Z,38.47
2022-12-15T18:36:11.075Z,36.88
2022-12-15T18:38:37.404Z,31.65
2022-12-15T18:41:06.836Z,36.90
2022-12-15T18:43:34.631Z,31.13
2022-12-15T18:46:01.579Z,35.70
2022-12-15T18:48:32.965Z,32.50
2022-12-15T18:51:00.726Z,31.80
2022-12-15T18:53:37.744Z,32.13
2022-12-15T18:56:06.233Z,32.28
2022-12-15T18:58:39.239Z,35.75
2022-12-15T19:01:06.382Z,34.53
2022-12-15T19:03:33.873Z,31.75
2022-12-15T19:06:10.856Z,36.58
2022-12-15T19:08:38.715Z,39.70
2022-12-15T19:11:14.243Z,37.13
2022-12-15T19:13:40.552Z,40.28
2022-12-15T19:16:12.802Z,34.17
2022-12-15T19:18:57.723Z,43.35
2022-12-15T19:21:47.678Z,38.83
2022-12-15T19:24:46.060Z,39.65
2022-12-15T19:27:15.762Z,38.83
2022-12-15T19:29:42.904Z,35.85
2022-12-15T19:32:09.348Z,39.83
2022-12-15T19:34:38.305Z,36.47
2022-12-15T19:37:06.780Z,39.47
2022-12-15T19:39:35.004Z,35.42
2022-12-15T19:42:10.087Z,39.72
2022-12-15T19:44:39.409Z,36.90
2022-12-15T19:47:13.108Z,41.78
2022-12-15T19:49:40.668Z,36.72
2022-12-15T19:52:13.688Z,34.63
2022-12-15T19:54:40.149Z,34.47
2022-12-15T19:57:14.931Z,38.42
2022-12-15T19:59:41.361Z,38.15
2022-12-15T20:02:15.538Z,38.95
2022-12-15T20:04:41.987Z,39.28
2022-12-15T20:07:17.644Z,34.15
2022-12-15T20:09:44.456Z,38.28
2022-12-15T20:12:16.988Z,35.33
2022-12-15T20:14:43.689Z,37.85
2022-12-15T20:17:10.335Z,35.58
2022-12-15T20:19:39.742Z,34.30
2022-12-15T20:22:06.627Z,35.75
2022-12-15T20:24:33.110Z,34.78
2022-12-15T20:26:59.558Z,37.25
2022-12-15T20:29:29.253Z,35.05
2022-12-15T20:31:56.873Z,33.70
2022-12-15T20:34:23.653Z,36.22
2022-12-15T20:36:50.204Z,36.60
2022-12-15T20:39:31.467Z,33.30
2022-12-15T20:41:57.946Z,36.97
2022-12-15T20:44:24.440Z,31.33
2022-12-15T20:46:50.859Z,33.60
2022-12-15T20:49:19.832Z,31.83
2022-12-15T20:51:47.384Z,31.77
2022-12-15T20:54:19.065Z,35.10
2022-12-15T20:56:45.473Z,37.40
2022-12-15T20:59:12.221Z,36.40
2022-12-15T21:01:39.241Z,36.65
2022-12-15T21:04:27.550Z,34.10
2022-12-15T21:06:55.268Z,33.72
2022-12-15T21:09:22.473Z,33.15
2022-12-15T21:11:49.554Z,31.35
2022-12-15T21:14:20.719Z,31.98
2022-12-15T21:16:47.262Z,34.80
2022-12-15T21:19:23.320Z,37.22
2022-12-15T21:21:51.864Z,36.38
2022-12-15T21:24:24.344Z,37.45
2022-12-15T21:26:51.484Z,37.53
2022-12-15T21:29:20.477Z,36.08
2022-12-15T21:31:47.338Z,35.28
2022-12-15T21:34:14.260Z,34.80
2022-12-15T21:36:42.605Z,38.35
2022-12-15T21:39:11.721Z,33.88
2022-12-15T21:41:41.617Z,35.45
2022-12-15T21:44:14.435Z,34.83
2022-12-15T21:46:41.062Z,33.03
2022-12-15T21:49:18.157Z,35.65
2022-12-15T21:51:51.866Z,31.95
2022-12-15T21:54:22.836Z,33.92
2022-12-15T21:56:53.116Z,34.60
2022-12-15T21:59:23.728Z,30.45
2022-12-15T22:01:50.239Z,31.42
2022-12-15T22:04:21.076Z,34.33
2022-12-15T22:06:50.676Z,29.85
2022-12-15T22:09:18.398Z,29.92
2022-12-15T22:11:46.909Z,31.90
2022-12-15T22:14:23.929Z,30.42
2022-12-15T22:16:50.259Z,30.80
2022-12-15T22:19:16.656Z,30.48
2022-12-15T22:21:43.138Z,32.95
2022-12-15T22:24:09.891Z,32.10
2022-12-15T22:26:37.447Z,33.65
2022-12-15T22:29:11.346Z,33.65
2022-12-15T22:31:37.714Z,28.83
2022-12-15T22:34:18.375Z,26.40
2022-12-15T22:36:44.855Z,27.48
2022-12-15T22:39:11.399Z,24.92
2022-12-15T22:41:46.207Z,25.83
2022-12-15T22:44:22.438Z,26.73
2022-12-15T22:46:50.498Z,24.73
2022-12-15T22:49:26.174Z,20.80
2022-12-15T22:51:55.074Z,21.60
2022-12-15T22:54:23.977Z,19.50
2022-12-15T22:56:53.768Z,18.42
2022-12-15T22:59:27.474Z,16.58
2022-12-15T23:01:54.518Z,17.60
2022-12-15T23:04:21.263Z,16.42
2022-12-15T23:06:47.649Z,16.67
2022-12-15T23:09:13.964Z,20.52
2022-12-15T23:11:44.111Z,19.17
2022-12-15T23:14:15.886Z,14.02
2022-12-15T23:16:46.787Z,17.17
2022-12-15T23:19:28.264Z,16.00
2022-12-15T23:21:54.690Z,16.38
2022-12-15T23:24:21.095Z,15.05
2022-12-15T23:26:50.775Z,16.23
2022-12-15T23:29:18.177Z,18.67
2022-12-15T23:31:44.656Z,16.00
2022-12-15T23:34:11.386Z,16.80
2022-12-15T23:36:37.865Z,16.52
2022-12-15T23:39:04.185Z,14.73
2022-12-15T23:41:30.494Z,18.67
2022-12-15T23:43:58.967Z,15.55
2022-12-15T23:46:25.569Z,16.10
2022-12-15T23:48:52.063Z,16.50
2022-12-15T23:51:20.210Z,14.57
2022-12-15T23:53:47.535Z,14.80
2022-12-15T23:56:16.667Z,14.63
2022-12-15T23:58:44.836Z,14.27
